Burlington City, New Jersey
Current Conditions -  °F | °C
As of 3:54 AM on Sunday 23 Nov 2014 (Local Time) from KVAY Reporting Station
Clear Clear  
Wind Chill: 36°   Ceiling: Unl
Heat Index: 39°   Visibility: 10mi
Dew Point: 22°   Wind: 5mph
Humidity: 50%   Direction: 210°SSW
Pressure: 30.2"   Gusts: NA
Location:  40.0691°N, 74.8276°W
Report Text: KVAY 230854Z AUTO 21004KT 10SM CLR 04/M06 A3020 RMK AO2 SLP228 T00391056 58010
Loading
Personal Weather Stations






























Interactive Weather Map New forecast layout! Learn more

10-Day Weather Forecast

Advertisements
Track Severe Weather on mobile